Time;durP1;ratioP1;P1;durP2;ratioP2;P2;SDS_P1;SDS_P2;PMS_P1;PMS_P2;Temp;Humidity;BMP_temperature;BMP_pressure;BME280_temperature;BME280_humidity;BME280_pressure;Samples;Min_cycle;Max_cycle;Signal;HPM_P1;HPM_P2
2021/01/22 00:00:37;;;;;;;5.80;3.65;;;;;;;8.11;72.62;98605.31;4989630;28;20673;-54
2021/01/22 00:03:04;;;;;;;6.95;4.32;;;;;;;8.08;72.93;98602.75;4989137;28;20042;-57
2021/01/22 00:05:31;;;;;;;6.05;4.40;;;;;;;8.20;71.51;98598.53;4989954;28;20043;-58
2021/01/22 00:07:58;;;;;;;5.95;4.43;;;;;;;8.22;71.15;98586.63;4989969;28;20043;-57
2021/01/22 00:10:24;;;;;;;6.05;4.22;;;;;;;8.22;71.70;98584.94;4990068;28;20121;-60
2021/01/22 00:12:51;;;;;;;8.45;5.22;;;;;;;8.38;70.64;98589.25;4989733;28;20058;-58
2021/01/22 00:15:17;;;;;;;10.48;6.15;;;;;;;8.35;71.28;98589.19;4990217;28;20054;-58
2021/01/22 00:17:44;;;;;;;7.82;4.53;;;;;;;8.41;71.91;98581.59;4989665;28;20050;-57
2021/01/22 00:20:11;;;;;;;7.05;4.50;;;;;;;8.31;72.35;98569.66;4989793;28;20050;-58
2021/01/22 00:22:37;;;;;;;7.50;4.20;;;;;;;8.27;72.38;98562.00;4989638;28;20070;-59
2021/01/22 00:25:05;;;;;;;6.07;4.05;;;;;;;8.13;73.12;98552.66;4988857;28;20060;-59
2021/01/22 00:27:31;;;;;;;7.93;4.68;;;;;;;8.20;72.85;98553.50;4989260;28;20042;-54
2021/01/22 00:29:58;;;;;;;8.77;5.68;;;;;;;8.28;72.59;98553.53;4989498;28;20137;-60
2021/01/22 00:32:26;;;;;;;8.23;5.50;;;;;;;8.40;72.65;98551.84;4989590;28;20057;-58
2021/01/22 00:34:52;;;;;;;5.65;4.20;;;;;;;8.36;72.34;98541.59;4989423;28;20049;-58
2021/01/22 00:37:19;;;;;;;8.25;4.20;;;;;;;8.28;72.86;98535.69;4989651;28;20506;-59
2021/01/22 00:39:45;;;;;;;4.78;3.30;;;;;;;8.36;72.32;98527.19;4989532;28;20055;-56
2021/01/22 00:42:12;;;;;;;4.32;3.60;;;;;;;8.45;73.30;98518.69;4984547;28;20057;-59
2021/01/22 00:44:40;;;;;;;5.93;3.45;;;;;;;8.39;73.04;98516.16;4989740;28;20407;-58
2021/01/22 00:47:07;;;;;;;4.88;2.92;;;;;;;8.37;73.98;98505.13;4989301;28;20061;-57
2021/01/22 00:49:34;;;;;;;5.10;3.38;;;;;;;8.64;72.59;98514.41;4987781;28;20068;-60
2021/01/22 00:52:01;;;;;;;6.10;3.25;;;;;;;8.61;73.24;98507.63;4986186;28;20046;-60
2021/01/22 00:54:28;;;;;;;5.30;3.38;;;;;;;8.67;73.01;98510.16;4986429;28;20046;-59
2021/01/22 00:56:55;;;;;;;5.78;3.30;;;;;;;8.66;73.17;98503.34;4986517;28;20046;-57
2021/01/22 00:59:22;;;;;;;3.20;2.55;;;;;;;8.73;73.53;98506.72;4986496;28;20050;-61
2021/01/22 01:01:49;;;;;;;4.03;2.60;;;;;;;8.75;73.03;98501.66;4986841;28;20569;-56
2021/01/22 01:04:16;;;;;;;2.78;2.58;;;;;;;8.87;73.17;98483.72;4986556;28;20042;-60
2021/01/22 01:06:42;;;;;;;3.08;2.30;;;;;;;8.95;72.64;98493.94;4985774;28;20497;-60
2021/01/22 01:09:09;;;;;;;2.22;1.85;;;;;;;9.02;72.72;98482.84;4985951;28;20058;-58
2021/01/22 01:11:35;;;;;;;3.85;2.10;;;;;;;9.17;72.87;98486.19;4985906;28;20088;-59
2021/01/22 01:14:02;;;;;;;2.60;1.35;;;;;;;9.36;72.04;98486.94;4985785;28;20058;-56
2021/01/22 01:16:29;;;;;;;2.15;1.70;;;;;;;9.56;71.40;98484.28;4985549;28;20053;-57
2021/01/22 01:18:56;;;;;;;1.52;1.30;;;;;;;9.61;71.74;98481.69;4984815;28;20054;-57
2021/01/22 01:21:23;;;;;;;1.58;1.40;;;;;;;9.78;71.12;98479.03;4985608;28;20047;-56
2021/01/22 01:23:49;;;;;;;1.60;1.17;;;;;;;9.84;71.27;98484.09;4985158;28;20062;-56
2021/01/22 01:26:16;;;;;;;1.67;1.23;;;;;;;9.96;70.95;98473.78;4985908;28;20053;-58
2021/01/22 01:28:42;;;;;;;3.75;0.90;;;;;;;10.08;70.68;98485.66;4985582;28;20061;-61
2021/01/22 01:31:08;;;;;;;1.13;0.90;;;;;;;10.13;70.70;98464.28;4985502;28;20057;-58
2021/01/22 01:33:36;;;;;;;0.57;0.57;;;;;;;10.40;69.12;98472.59;4985341;28;20074;-58
2021/01/22 01:36:03;;;;;;;0.90;0.80;;;;;;;10.49;68.88;98464.81;4985090;28;20054;-52
2021/01/22 01:38:29;;;;;;;0.88;0.50;;;;;;;10.59;69.03;98457.94;4985623;28;20101;-59
2021/01/22 01:40:55;;;;;;;0.40;0.40;;;;;;;10.61;69.23;98454.47;4984275;28;20078;-60
2021/01/22 01:43:25;;;;;;;0.90;0.43;;;;;;;10.74;67.91;98450.06;4985650;28;20410;-57
2021/01/22 01:45:51;;;;;;;1.48;0.40;;;;;;;10.73;68.41;98444.97;4985165;28;20112;-57
2021/01/22 01:48:18;;;;;;;0.50;0.40;;;;;;;10.87;67.62;98449.06;4986068;28;20062;-54
2021/01/22 01:50:45;;;;;;;1.27;0.38;;;;;;;10.87;67.25;98436.28;4985345;28;20160;-56
2021/01/22 01:53:12;;;;;;;0.40;0.30;;;;;;;10.94;66.84;98443.00;4983879;28;20069;-57
2021/01/22 01:55:39;;;;;;;1.90;0.28;;;;;;;10.92;66.79;98431.09;4985113;28;20058;-58
2021/01/22 01:58:06;;;;;;;0.65;0.65;;;;;;;11.02;66.42;98431.81;4984104;28;20062;-56
2021/01/22 02:00:33;;;;;;;1.17;0.57;;;;;;;11.06;66.46;98439.44;4984915;28;20057;-58
2021/01/22 02:03:02;;;;;;;0.80;0.60;;;;;;;11.07;65.59;98436.00;4984832;28;20769;-56
2021/01/22 02:05:29;;;;;;;0.70;0.30;;;;;;;11.12;65.70;98449.59;4985184;28;20510;-56
2021/01/22 02:07:56;;;;;;;0.45;0.30;;;;;;;11.09;65.88;98431.75;4983627;28;20108;-58
2021/01/22 02:10:23;;;;;;;0.30;0.30;;;;;;;11.00;65.88;98434.41;4985229;28;20510;-58
2021/01/22 02:12:51;;;;;;;0.98;0.20;;;;;;;11.16;65.20;98450.41;4985057;28;20054;-57
2021/01/22 02:15:18;;;;;;;0.30;0.30;;;;;;;11.09;65.72;98428.31;4985237;28;20906;-58
2021/01/22 02:17:46;;;;;;;0.30;0.22;;;;;;;11.13;65.12;98432.53;4984506;28;20565;-59
2021/01/22 02:20:50;;;;;;;0.30;0.30;;;;;;;11.19;64.37;98428.19;4980140;28;20046;-56
2021/01/22 02:23:20;;;;;;;0.50;0.30;;;;;;;11.23;64.41;98434.09;4980560;28;20054;-59
2021/01/22 02:25:49;;;;;;;0.30;0.30;;;;;;;11.19;64.29;98423.06;4984866;28;20050;-57
2021/01/22 02:28:17;;;;;;;0.55;0.30;;;;;;;11.18;64.25;98425.63;4984815;28;20410;-59
2021/01/22 02:30:45;;;;;;;0.45;0.30;;;;;;;11.19;64.10;98429.91;4984529;28;20043;-60
2021/01/22 02:33:14;;;;;;;0.90;0.20;;;;;;;11.06;64.59;98421.53;4979756;28;20046;-58
2021/01/22 02:35:41;;;;;;;0.20;0.20;;;;;;;11.09;64.19;98424.06;4984404;28;20062;-59
2021/01/22 02:38:09;;;;;;;0.20;0.20;;;;;;;11.16;64.11;98435.91;4984255;28;20054;-60
2021/01/22 02:40:43;;;;;;;1.65;0.20;;;;;;;11.13;63.99;98422.28;4984258;28;20054;-57
2021/01/22 02:43:12;;;;;;;0.30;0.30;;;;;;;11.18;63.45;98423.06;4984103;28;20128;-60
2021/01/22 02:45:38;;;;;;;1.45;0.22;;;;;;;11.17;63.27;98409.41;4984117;28;20046;-60
2021/01/22 02:48:06;;;;;;;1.05;0.28;;;;;;;11.03;64.19;98413.03;4983006;28;20061;-56
2021/01/22 02:50:37;;;;;;;0.82;0.40;;;;;;;11.10;63.23;98412.94;4983930;28;20045;-58
2021/01/22 02:53:05;;;;;;;0.20;0.20;;;;;;;11.05;63.01;98376.31;4984076;28;20058;-58
2021/01/22 02:55:34;;;;;;;0.47;0.20;;;;;;;10.99;63.25;98394.28;4983629;28;20387;-59
2021/01/22 02:58:32;;;;;;;0.50;0.28;;;;;;;11.08;63.08;98385.63;4984022;28;20046;-58
2021/01/22 03:01:05;;;;;;;0.35;0.35;;;;;;;11.01;63.00;98396.84;4982737;28;20086;-56
2021/01/22 03:03:46;;;;;;;0.40;0.20;;;;;;;11.07;62.91;98387.34;4983852;28;20112;-56
2021/01/22 03:06:20;;;;;;;0.32;0.30;;;;;;;11.00;63.03;98384.88;4979045;28;20089;-60
2021/01/22 03:08:51;;;;;;;0.20;0.20;;;;;;;10.91;63.30;98384.16;4984199;28;20078;-57
2021/01/22 03:11:19;;;;;;;0.50;0.28;;;;;;;10.89;63.07;98380.75;4979363;28;20046;-59
2021/01/22 03:13:48;;;;;;;0.63;0.30;;;;;;;10.75;64.14;98374.13;4983059;28;20046;-57
2021/01/22 03:16:15;;;;;;;0.20;0.20;;;;;;;10.83;63.17;98367.22;4979097;28;20061;-57
2021/01/22 03:18:57;;;;;;;0.20;0.20;;;;;;;10.87;62.55;98362.03;4983694;28;20061;-58
2021/01/22 03:21:23;;;;;;;0.20;0.17;;;;;;;10.88;62.74;98360.31;4980225;28;20535;-58
2021/01/22 03:23:49;;;;;;;0.55;0.30;;;;;;;10.89;62.49;98346.63;4983590;28;20043;-58
2021/01/22 03:26:16;;;;;;;0.63;0.30;;;;;;;10.79;62.59;98352.75;4983729;28;20174;-55
2021/01/22 03:28:42;;;;;;;1.05;0.20;;;;;;;10.87;62.48;98344.09;4983486;28;20065;-58
2021/01/22 03:31:09;;;;;;;0.20;0.20;;;;;;;10.80;62.40;98342.47;4983566;28;20058;-57
2021/01/22 03:33:35;;;;;;;0.98;0.20;;;;;;;10.84;62.00;98343.28;4983947;28;20050;-56
2021/01/22 03:36:03;;;;;;;0.55;0.40;;;;;;;10.71;62.60;98332.38;4983686;28;20050;-56
2021/01/22 03:38:30;;;;;;;0.30;0.30;;;;;;;10.70;62.65;98328.97;4983719;28;20076;-60
2021/01/22 03:40:56;;;;;;;0.32;0.30;;;;;;;10.72;62.59;98334.03;4982420;28;20121;-59
2021/01/22 03:43:23;;;;;;;1.10;0.60;;;;;;;10.62;62.58;98335.03;4983989;28;20454;-59
2021/01/22 03:45:49;;;;;;;2.05;0.40;;;;;;;10.70;62.61;98333.25;4984815;28;20057;-59
2021/01/22 03:48:16;;;;;;;1.23;0.30;;;;;;;10.62;62.35;98329.91;4985034;28;20050;-56
2021/01/22 03:50:43;;;;;;;0.30;0.30;;;;;;;10.58;63.21;98328.25;4984041;28;20116;-57
2021/01/22 03:53:10;;;;;;;1.45;0.30;;;;;;;10.50;62.70;98328.38;4983575;28;20053;-58
2021/01/22 03:55:50;;;;;;;0.60;0.40;;;;;;;10.42;62.69;98315.66;4974769;28;20051;-61
2021/01/22 03:58:17;;;;;;;0.77;0.38;;;;;;;10.39;63.66;98323.38;4984257;28;20047;-60
2021/01/22 04:00:44;;;;;;;0.30;0.30;;;;;;;10.41;63.41;98321.66;4983654;28;20109;-56
2021/01/22 04:03:10;;;;;;;1.20;0.38;;;;;;;10.32;63.20;98320.91;4983509;28;20058;-59
2021/01/22 04:05:38;;;;;;;0.40;0.40;;;;;;;10.28;63.60;98316.69;4983605;28;20138;-57
2021/01/22 04:08:05;;;;;;;0.43;0.40;;;;;;;10.11;64.63;98316.84;4982404;28;20053;-58
2021/01/22 04:10:32;;;;;;;0.57;0.30;;;;;;;10.12;64.42;98313.41;4983348;28;20051;-58
2021/01/22 04:12:58;;;;;;;0.55;0.55;;;;;;;10.20;63.22;98317.59;4983062;28;20061;-56
2021/01/22 04:15:25;;;;;;;1.10;0.77;;;;;;;10.06;64.27;98321.16;4983331;28;20053;-56
2021/01/22 04:17:51;;;;;;;0.50;0.50;;;;;;;10.03;64.61;98313.50;4982993;28;20105;-59
2021/01/22 04:20:21;;;;;;;1.00;0.50;;;;;;;10.11;64.14;98312.56;4983881;28;20050;-58
2021/01/22 04:22:50;;;;;;;1.17;0.50;;;;;;;9.93;64.97;98307.66;4983465;28;20054;-59
2021/01/22 04:25:19;;;;;;;0.60;0.60;;;;;;;9.98;64.24;98297.38;4984713;28;20522;-58
2021/01/22 04:27:46;;;;;;;0.90;0.50;;;;;;;9.97;64.01;98295.69;4986745;28;20058;-57
2021/01/22 04:30:13;;;;;;;1.65;0.40;;;;;;;9.82;64.48;98292.44;4981566;28;20042;-61
2021/01/22 04:32:41;;;;;;;0.68;0.50;;;;;;;9.87;64.85;98282.16;4987256;28;20046;-60
2021/01/22 04:35:13;;;;;;;0.60;0.43;;;;;;;9.85;64.83;98279.63;4986812;28;20586;-57
2021/01/22 04:37:41;;;;;;;1.00;0.55;;;;;;;9.79;63.83;98281.38;4988153;28;20068;-57
2021/01/22 04:40:11;;;;;;;0.60;0.60;;;;;;;9.69;64.35;98283.19;4986830;28;20062;-53
2021/01/22 04:42:42;;;;;;;1.92;0.52;;;;;;;9.56;64.56;98268.84;4986742;28;20073;-59
2021/01/22 04:45:10;;;;;;;0.90;0.50;;;;;;;9.54;64.29;98268.84;4986531;28;20046;-56
2021/01/22 04:47:38;;;;;;;1.65;0.90;;;;;;;9.61;64.31;98251.75;4986617;28;20117;-54
2021/01/22 04:50:07;;;;;;;0.98;0.60;;;;;;;9.55;64.33;98267.16;4985480;28;20046;-59
2021/01/22 04:52:38;;;;;;;1.77;0.68;;;;;;;9.52;63.63;98254.41;4985599;28;20046;-55
2021/01/22 04:55:10;;;;;;;0.93;0.50;;;;;;;9.44;63.87;98250.22;4985106;28;20042;-58
2021/01/22 04:57:42;;;;;;;0.70;0.60;;;;;;;9.29;63.79;98250.38;4984661;28;20042;-60
2021/01/22 05:00:10;;;;;;;1.30;0.80;;;;;;;9.29;63.96;98239.28;4984189;28;20062;-57
2021/01/22 05:02:38;;;;;;;1.00;0.65;;;;;;;9.31;64.22;98242.69;4984794;28;20127;-58
2021/01/22 05:05:06;;;;;;;0.90;0.73;;;;;;;9.13;64.73;98244.53;4984160;28;20054;-59
2021/01/22 05:07:33;;;;;;;1.30;0.75;;;;;;;9.24;63.94;98246.97;4984864;28;20043;-60
2021/01/22 05:09:59;;;;;;;1.20;1.02;;;;;;;9.14;63.89;98227.50;4985822;28;20113;-59
2021/01/22 05:12:38;;;;;;;1.50;0.82;;;;;;;9.11;64.01;98236.03;4986226;28;20122;-59
2021/01/22 05:15:18;;;;;;;2.40;1.13;;;;;;;9.14;63.62;98227.50;4986454;28;20050;-55
2021/01/22 05:18:04;;;;;;;0.98;0.88;;;;;;;9.04;63.88;98231.84;4986018;28;20050;-58
2021/01/22 05:20:39;;;;;;;2.80;1.10;;;;;;;9.11;63.11;98219.88;4983628;28;20042;-60
2021/01/22 05:23:07;;;;;;;2.15;1.42;;;;;;;8.90;64.51;98210.69;4985412;28;20486;-52
2021/01/22 05:25:54;;;;;;;1.60;0.80;;;;;;;8.94;63.56;98207.25;4986244;28;20066;-59
2021/01/22 05:28:32;;;;;;;1.67;0.88;;;;;;;8.89;64.23;98214.94;4982497;28;20043;-56
2021/01/22 05:30:58;;;;;;;1.35;0.90;;;;;;;8.91;64.08;98215.75;4985203;28;20391;-60
2021/01/22 05:33:26;;;;;;;1.08;0.98;;;;;;;8.89;63.33;98219.19;4986016;28;20565;-55
2021/01/22 05:35:52;;;;;;;1.63;1.30;;;;;;;8.79;64.50;98218.41;4985282;28;20038;-58
2021/01/22 05:38:39;;;;;;;0.95;0.80;;;;;;;8.87;63.25;98220.91;4986138;28;20046;-56
2021/01/22 05:41:07;;;;;;;1.67;1.23;;;;;;;8.80;63.55;98232.03;4985705;28;20085;-57
2021/01/22 05:43:36;;;;;;;1.92;1.20;;;;;;;8.71;64.20;98220.16;4985458;28;20104;-58
2021/01/22 05:46:04;;;;;;;1.10;1.00;;;;;;;8.68;64.28;98226.13;4985420;28;20101;-57
2021/01/22 05:48:30;;;;;;;1.40;1.13;;;;;;;8.62;64.90;98222.78;4986003;28;20489;-57
2021/01/22 05:50:59;;;;;;;1.88;1.10;;;;;;;8.64;64.09;98221.94;4984590;28;20502;-56
2021/01/22 05:53:27;;;;;;;1.48;1.13;;;;;;;8.59;64.12;98226.19;4985665;28;20050;-58
2021/01/22 05:56:11;;;;;;;3.58;1.23;;;;;;;8.61;63.83;98232.16;4985416;28;20419;-56
2021/01/22 05:58:40;;;;;;;2.35;1.50;;;;;;;8.38;64.94;98205.94;4985147;28;20431;-58
2021/01/22 06:01:15;;;;;;;1.40;1.00;;;;;;;8.48;65.02;98224.56;4984764;28;20113;-57
2021/01/22 06:03:45;;;;;;;2.00;1.47;;;;;;;8.47;64.05;98215.22;4985165;28;20096;-60
2021/01/22 06:06:13;;;;;;;2.10;1.58;;;;;;;8.53;64.02;98215.19;4980511;28;20133;-56
2021/01/22 06:08:57;;;;;;;2.40;1.85;;;;;;;8.65;64.34;98210.88;4985271;28;20388;-56
2021/01/22 06:11:25;;;;;;;1.38;1.20;;;;;;;8.75;64.03;98211.66;4981598;28;20533;-55
2021/01/22 06:13:55;;;;;;;1.90;1.30;;;;;;;8.56;64.70;98207.53;4984589;28;20038;-55
2021/01/22 06:16:25;;;;;;;1.40;1.30;;;;;;;8.53;64.96;98215.19;4985360;28;20050;-54
2021/01/22 06:18:57;;;;;;;3.10;1.10;;;;;;;8.46;65.60;98209.28;4981831;28;20050;-52
2021/01/22 06:21:29;;;;;;;2.00;1.50;;;;;;;8.56;65.03;98216.03;4984803;28;20694;-52
2021/01/22 06:24:00;;;;;;;1.33;1.08;;;;;;;8.33;65.41;98211.03;4984209;28;20054;-55
2021/01/22 06:26:28;;;;;;;1.40;1.25;;;;;;;8.39;65.74;98207.63;4984600;28;20050;-54
2021/01/22 06:28:59;;;;;;;1.90;1.20;;;;;;;8.46;66.02;98209.28;4984586;28;20078;-54
2021/01/22 06:31:27;;;;;;;1.95;1.27;;;;;;;8.48;65.83;98201.63;4981240;28;20053;-55
2021/01/22 06:33:55;;;;;;;3.08;1.10;;;;;;;8.46;66.03;98204.19;4984597;28;20062;-58
2021/01/22 06:36:23;;;;;;;3.20;1.38;;;;;;;8.59;65.65;98195.56;4984640;28;20106;-54
2021/01/22 06:38:51;;;;;;;3.10;1.27;;;;;;;8.66;65.87;98204.06;4984948;28;20052;-59
2021/01/22 06:41:21;;;;;;;2.95;1.60;;;;;;;8.69;65.50;98201.50;4984667;28;20056;-59
2021/01/22 06:43:48;;;;;;;4.68;2.78;;;;;;;8.79;65.14;98202.28;4983430;28;20085;-57
2021/01/22 06:46:17;;;;;;;3.97;2.78;;;;;;;8.77;65.70;98197.16;4984401;28;20480;-58
2021/01/22 06:49:05;;;;;;;5.15;3.13;;;;;;;8.64;65.32;98198.09;4982855;28;20100;-56
2021/01/22 06:51:34;;;;;;;7.72;4.80;;;;;;;8.57;65.53;98194.75;4981930;28;20471;-55
2021/01/22 06:54:11;;;;;;;6.22;4.75;;;;;;;8.53;66.10;98205.81;4984377;28;20585;-55
2021/01/22 06:56:47;;;;;;;5.72;3.42;;;;;;;8.51;65.48;98205.00;4984064;28;20538;-56
2021/01/22 06:59:20;;;;;;;4.78;2.20;;;;;;;8.47;65.94;98205.03;4979462;28;20121;-57
2021/01/22 07:01:50;;;;;;;4.47;2.83;;;;;;;8.58;65.71;98203.25;4984249;28;20046;-53
2021/01/22 07:04:29;;;;;;;3.03;1.73;;;;;;;8.64;65.59;98213.41;4984531;28;20046;-55
2021/01/22 07:06:57;;;;;;;2.72;1.90;;;;;;;8.73;64.96;98200.59;4982760;28;20128;-56
2021/01/22 07:09:44;;;;;;;2.88;1.60;;;;;;;8.62;65.53;98202.38;4984078;28;20061;-54
2021/01/22 07:12:32;;;;;;;1.38;1.27;;;;;;;8.56;65.73;98204.97;4984133;28;20749;-56
2021/01/22 07:14:59;;;;;;;2.80;1.73;;;;;;;8.47;66.07;98215.22;4983314;28;20061;-56
2021/01/22 07:17:28;;;;;;;1.80;1.33;;;;;;;8.55;65.98;98206.69;4984078;28;20120;-57
2021/01/22 07:20:08;;;;;;;2.08;1.42;;;;;;;8.44;66.97;98221.19;4982562;28;20053;-56
2021/01/22 07:22:48;;;;;;;1.85;1.20;;;;;;;8.52;66.43;98223.69;4984057;28;20116;-54
2021/01/22 07:25:28;;;;;;;4.13;1.73;;;;;;;8.46;66.41;98223.72;4979503;28;20101;-55
2021/01/22 07:27:55;;;;;;;1.25;1.15;;;;;;;8.62;66.23;98212.56;4983716;28;20070;-56
2021/01/22 07:30:22;;;;;;;1.52;1.10;;;;;;;8.64;66.15;98221.94;4984230;28;20050;-52
2021/01/22 07:32:50;;;;;;;3.25;1.30;;;;;;;8.55;67.06;98233.88;4984113;28;20483;-57
2021/01/22 07:35:24;;;;;;;2.05;1.33;;;;;;;8.70;66.60;98220.19;4983932;28;20050;-56
2021/01/22 07:37:52;;;;;;;4.15;1.42;;;;;;;8.66;67.20;98214.25;4983153;28;20061;-54
2021/01/22 07:40:19;;;;;;;1.73;1.20;;;;;;;8.76;67.12;98227.78;4984166;28;20049;-56
2021/01/22 07:42:46;;;;;;;2.22;1.40;;;;;;;8.80;66.68;98225.22;4983374;28;20426;-56
2021/01/22 07:45:15;;;;;;;1.15;0.90;;;;;;;8.76;66.89;98225.25;4978992;28;20415;-51
2021/01/22 07:47:46;;;;;;;2.38;1.17;;;;;;;8.77;66.98;98225.22;4983277;28;20054;-54
2021/01/22 07:50:14;;;;;;;1.80;1.52;;;;;;;8.90;67.14;98221.72;4978967;28;20050;-52
2021/01/22 07:52:50;;;;;;;3.60;1.02;;;;;;;9.06;66.36;98234.34;4982412;28;20050;-54
2021/01/22 07:55:21;;;;;;;1.35;1.00;;;;;;;9.28;65.86;98230.78;4979584;28;20054;-52
2021/01/22 07:58:04;;;;;;;1.95;1.08;;;;;;;9.35;66.06;98239.25;4983474;28;20048;-60
2021/01/22 08:00:38;;;;;;;1.83;1.05;;;;;;;9.50;65.52;98241.66;4986658;28;20053;-55
2021/01/22 08:03:05;;;;;;;2.88;0.93;;;;;;;9.61;65.35;98229.63;4983757;28;20115;-56
2021/01/22 08:05:33;;;;;;;1.98;1.00;;;;;;;9.75;64.45;98215.84;4987449;28;20094;-57
2021/01/22 08:08:15;;;;;;;0.90;0.70;;;;;;;9.93;64.18;98226.69;4987322;28;20479;-56
2021/01/22 08:10:41;;;;;;;3.05;0.73;;;;;;;9.99;64.71;98222.41;4987512;28;20144;-55
2021/01/22 08:13:08;;;;;;;0.70;0.60;;;;;;;10.07;64.01;98228.25;4987412;28;20058;-59
2021/01/22 08:15:34;;;;;;;2.70;1.10;;;;;;;10.10;63.80;98226.50;4987393;28;20121;-58
2021/01/22 08:18:04;;;;;;;1.63;1.50;;;;;;;10.17;63.80;98230.69;4986661;28;20054;-59
2021/01/22 08:20:32;;;;;;;3.80;1.00;;;;;;;10.20;63.23;98222.13;4987314;28;20050;-58
2021/01/22 08:22:58;;;;;;;1.75;1.02;;;;;;;10.33;63.56;98233.94;4987394;28;20105;-56
2021/01/22 08:25:29;;;;;;;1.48;0.90;;;;;;;10.33;63.50;98233.94;4987194;28;20178;-59
2021/01/22 08:28:05;;;;;;;1.48;1.10;;;;;;;10.43;62.99;98232.94;4987414;28;20481;-57
2021/01/22 08:30:32;;;;;;;1.58;1.10;;;;;;;10.42;62.72;98241.47;4987406;28;20503;-58
2021/01/22 08:32:59;;;;;;;1.77;0.80;;;;;;;10.48;62.85;98237.16;4987825;28;20062;-57
2021/01/22 08:35:29;;;;;;;1.15;0.60;;;;;;;10.56;62.54;98243.00;4986918;28;20054;-56
2021/01/22 08:37:57;;;;;;;1.13;0.60;;;;;;;10.59;62.73;98241.25;4987276;28;20050;-59
2021/01/22 08:40:36;;;;;;;1.20;0.80;;;;;;;10.69;62.50;98252.22;4987335;28;20586;-56
2021/01/22 08:43:09;;;;;;;1.15;0.85;;;;;;;10.67;62.41;98248.81;4986673;28;20054;-57
2021/01/22 08:45:36;;;;;;;1.45;0.63;;;;;;;10.71;61.99;98246.19;4986964;28;20054;-62
2021/01/22 08:48:03;;;;;;;1.67;0.70;;;;;;;10.85;61.73;98248.53;4986833;28;20499;-53
2021/01/22 08:50:30;;;;;;;1.70;0.73;;;;;;;10.80;62.25;98257.16;4986421;28;20045;-60
2021/01/22 08:53:12;;;;;;;1.45;0.90;;;;;;;10.87;61.95;98264.75;4986991;28;20112;-56
2021/01/22 08:55:40;;;;;;;1.38;0.70;;;;;;;10.84;61.78;98266.50;4986324;28;20057;-56
2021/01/22 08:58:10;;;;;;;2.47;0.95;;;;;;;10.85;61.68;98269.03;4986040;28;20435;-56
2021/01/22 09:00:39;;;;;;;2.17;0.90;;;;;;;10.82;62.27;98276.78;4988353;28;20061;-56
2021/01/22 09:03:22;;;;;;;3.20;1.15;;;;;;;10.81;62.58;98274.22;4987734;28;20077;-57
2021/01/22 09:05:54;;;;;;;2.22;0.70;;;;;;;10.90;62.22;98281.75;4986504;28;20058;-58
2021/01/22 09:08:22;;;;;;;2.88;0.65;;;;;;;10.94;61.85;98284.25;4987180;28;20423;-58
2021/01/22 09:10:52;;;;;;;1.02;0.90;;;;;;;10.92;62.33;98288.56;4987873;28;20053;-57
2021/01/22 09:13:20;;;;;;;0.82;0.50;;;;;;;10.92;62.16;98300.53;4991206;28;20838;-58
2021/01/22 09:15:49;;;;;;;2.05;0.60;;;;;;;10.94;62.81;98314.13;4989310;28;20042;-55
2021/01/22 09:18:16;;;;;;;1.58;0.93;;;;;;;10.96;62.24;98332.91;4992324;28;20042;-56
2021/01/22 09:20:44;;;;;;;1.13;0.60;;;;;;;10.96;62.39;98325.22;4993515;28;20848;-59
2021/01/22 09:23:11;;;;;;;2.80;0.73;;;;;;;10.83;63.22;98342.44;4986741;28;20058;-56
2021/01/22 09:25:38;;;;;;;0.77;0.47;;;;;;;10.62;65.61;98391.34;4992598;28;20142;-56
2021/01/22 09:28:05;;;;;;;1.30;0.30;;;;;;;9.92;67.99;98396.28;4985787;28;20097;-58
2021/01/22 09:30:32;;;;;;;0.20;0.20;;;;;;;9.52;70.13;98400.88;4985744;28;20049;-53
2021/01/22 09:32:59;;;;;;;0.10;0.10;;;;;;;8.83;71.22;98405.53;4987205;28;20058;-56
2021/01/22 09:35:29;;;;;;;0.32;0.10;;;;;;;8.64;71.44;98417.47;4989056;28;20108;-56
2021/01/22 09:37:57;;;;;;;0.22;0.20;;;;;;;8.44;72.76;98420.09;4984777;28;20058;-53
2021/01/22 09:40:24;;;;;;;0.30;0.20;;;;;;;8.52;73.45;98441.31;4985397;28;20053;-55
2021/01/22 09:42:51;;;;;;;0.28;0.10;;;;;;;8.46;73.81;98427.72;4983892;28;20086;-56
2021/01/22 09:45:18;;;;;;;0.50;0.10;;;;;;;8.06;76.12;98423.53;4984641;28;20624;-56
2021/01/22 09:47:46;;;;;;;0.63;0.40;;;;;;;7.98;77.52;98437.97;4982040;28;20053;-59
2021/01/22 09:50:14;;;;;;;0.20;0.20;;;;;;;8.06;77.35;98451.56;4980323;28;20050;-58
2021/01/22 09:52:41;;;;;;;0.17;0.17;;;;;;;7.97;78.17;98449.00;4985531;28;20074;-55
2021/01/22 09:55:10;;;;;;;0.30;0.30;;;;;;;7.93;78.48;98457.50;4985351;28;20058;-58
2021/01/22 09:57:36;;;;;;;0.93;0.40;;;;;;;7.83;79.33;98460.91;4985278;28;20046;-58
2021/01/22 10:00:06;;;;;;;0.30;0.30;;;;;;;7.68;79.28;98464.28;4985323;28;20129;-57
2021/01/22 10:02:32;;;;;;;0.68;0.20;;;;;;;7.81;78.83;98465.13;4979092;28;20042;-57
2021/01/22 10:04:59;;;;;;;0.10;0.10;;;;;;;7.64;79.01;98467.66;4981738;28;20077;-53
2021/01/22 10:07:27;;;;;;;1.00;0.13;;;;;;;7.61;79.67;98473.59;4979252;28;20050;-52
2021/01/22 10:09:53;;;;;;;0.40;0.40;;;;;;;7.97;77.96;98461.75;4984053;28;20050;-52
2021/01/22 10:12:20;;;;;;;0.77;0.43;;;;;;;7.79;79.06;98466.84;4984110;28;20054;-55
2021/01/22 10:14:47;;;;;;;0.68;0.30;;;;;;;7.95;78.60;98467.69;4983854;28;20527;-55
2021/01/22 10:17:13;;;;;;;0.10;0.10;;;;;;;8.16;78.05;98475.34;4983635;28;20113;-55
2021/01/22 10:19:43;;;;;;;1.08;0.22;;;;;;;7.93;77.98;98480.44;4983275;28;20050;-57
2021/01/22 10:22:12;;;;;;;0.20;0.20;;;;;;;8.15;78.23;98487.22;4982183;28;20145;-51
2021/01/22 10:24:39;;;;;;;1.10;0.20;;;;;;;7.95;78.37;98488.06;4986205;28;20054;-59
2021/01/22 10:27:05;;;;;;;0.10;0.10;;;;;;;8.13;76.25;98496.59;4983950;28;20062;-54
2021/01/22 10:29:31;;;;;;;1.65;0.22;;;;;;;8.05;76.37;98498.28;4984260;28;20172;-58
2021/01/22 10:31:58;;;;;;;3.65;0.28;;;;;;;7.83;77.69;98499.97;4983938;28;20058;-53
2021/01/22 10:34:24;;;;;;;0.47;0.13;;;;;;;7.91;76.89;98494.88;4984627;28;20166;-53
2021/01/22 10:36:51;;;;;;;0.30;0.20;;;;;;;7.93;76.88;98489.78;4983046;28;20050;-56
2021/01/22 10:39:17;;;;;;;0.40;0.30;;;;;;;7.93;77.28;98499.97;4983615;28;20096;-56
2021/01/22 10:41:43;;;;;;;0.30;0.20;;;;;;;7.99;76.91;98499.97;4983410;28;20062;-60
2021/01/22 10:44:10;;;;;;;0.40;0.30;;;;;;;8.01;76.60;98514.41;4984825;28;20046;-58
2021/01/22 10:46:38;;;;;;;0.82;0.40;;;;;;;8.38;74.97;98519.56;4983588;28;20054;-56
2021/01/22 10:49:05;;;;;;;0.38;0.20;;;;;;;7.92;77.03;98516.97;4984069;28;20050;-56
2021/01/22 10:51:32;;;;;;;0.10;0.10;;;;;;;8.10;77.32;98516.13;4983983;28;20061;-58
2021/01/22 10:53:58;;;;;;;0.30;0.13;;;;;;;8.41;76.10;98516.97;4983783;28;20055;-60
2021/01/22 10:56:25;;;;;;;0.50;0.30;;;;;;;8.57;75.62;98517.84;4983338;28;20057;-61
2021/01/22 10:58:52;;;;;;;0.98;0.20;;;;;;;8.40;76.41;98515.28;4983389;28;20050;-60
2021/01/22 11:01:19;;;;;;;0.30;0.30;;;;;;;8.16;77.59;98513.56;4983694;28;20058;-60
2021/01/22 11:03:46;;;;;;;0.65;0.30;;;;;;;8.46;77.50;98516.97;4984062;28;20129;-61
2021/01/22 11:06:12;;;;;;;3.25;0.20;;;;;;;8.37;78.03;98515.31;4978271;28;20105;-59
2021/01/22 11:08:38;;;;;;;0.65;0.55;;;;;;;8.51;78.56;98513.59;4984877;28;20096;-57
2021/01/22 11:11:05;;;;;;;0.20;0.20;;;;;;;8.45;79.66;98507.63;4983539;28;20059;-57
2021/01/22 11:13:31;;;;;;;0.73;0.40;;;;;;;8.82;79.24;98516.06;4984631;28;20057;-59
2021/01/22 11:15:58;;;;;;;0.57;0.20;;;;;;;8.77;79.95;98520.34;4984221;28;20814;-56
2021/01/22 11:18:24;;;;;;;0.80;0.20;;;;;;;9.02;75.95;98519.44;4983580;28;20069;-60
2021/01/22 11:23:18;;;;;;;1.55;0.25;;;;;;;8.96;74.70;98521.13;4963886;28;20043;-56
2021/01/22 11:25:45;;;;;;;3.13;0.32;;;;;;;9.09;76.28;98518.53;4963565;28;20057;-55
2021/01/22 11:28:11;;;;;;;0.95;0.20;;;;;;;9.29;74.28;98523.59;4964077;28;20113;-54
2021/01/22 11:30:38;;;;;;;1.08;0.20;;;;;;;9.08;74.40;98534.72;4964341;28;20102;-54
2021/01/22 11:33:04;;;;;;;0.65;0.30;;;;;;;8.88;74.34;98526.28;4965292;28;20442;-55
2021/01/22 11:35:34;;;;;;;0.88;0.20;;;;;;;9.05;71.93;98531.31;4962977;28;20132;-55
2021/01/22 11:38:01;;;;;;;0.20;0.20;;;;;;;8.95;72.09;98529.66;4963329;28;20058;-59
2021/01/22 11:40:28;;;;;;;0.30;0.28;;;;;;;8.75;70.86;98538.22;4962386;28;20059;-53
2021/01/22 11:42:55;;;;;;;0.52;0.30;;;;;;;8.79;71.09;98534.81;4963436;28;20054;-59
2021/01/22 11:45:22;;;;;;;0.57;0.30;;;;;;;8.67;71.29;98527.16;4963635;28;20051;-51
2021/01/22 11:47:48;;;;;;;0.95;0.40;;;;;;;8.91;69.62;98523.69;4963453;28;20101;-58
2021/01/22 11:50:15;;;;;;;1.00;0.30;;;;;;;9.04;69.66;98530.47;4963193;28;20462;-55